Time;durP1;ratioP1;P1;durP2;ratioP2;P2;SDS_P1;SDS_P2;PMS_P1;PMS_P2;Temp;Humidity;BMP_temperature;BMP_pressure;BME280_temperature;BME280_humidity;BME280_pressure;Samples;Min_cycle;Max_cycle;Signal;HPM_P1;HPM_P2
2021/01/08 00:00:57;;;;;;;9.00;6.90;;;;;;;;;;5122958;28;20031;-58
2021/01/08 00:03:33;;;;;;;10.00;8.03;;;;;;;;;;5123469;28;20034;-58
2021/01/08 00:06:15;;;;;;;7.87;6.13;;;;;;;;;;5104736;28;20019;-57
2021/01/08 00:08:45;;;;;;;8.60;6.87;;;;;;;;;;5122862;28;20466;-58
2021/01/08 00:14:33;;;;;;;9.47;7.57;;;;;;;;;;5117119;28;20036;-58
2021/01/08 00:20:00;;;;;;;7.77;5.87;;;;;;;;;;5122506;28;20047;-58
2021/01/08 00:22:54;;;;;;;11.80;7.87;;;;;;;;;;5122702;28;20355;-58
2021/01/08 00:25:44;;;;;;;14.03;8.43;;;;;;;;;;5122761;28;20473;-57
2021/01/08 00:28:30;;;;;;;11.60;7.87;;;;;;;;;;5122780;28;20054;-56
2021/01/08 00:31:05;;;;;;;11.33;7.47;;;;;;;;;;5105133;28;20084;-58
2021/01/08 00:34:00;;;;;;;12.47;8.73;;;;;;;;;;5122894;28;20031;-57
2021/01/08 00:36:35;;;;;;;10.67;7.63;;;;;;;;;;5113800;28;20040;-57
2021/01/08 00:39:33;;;;;;;;;;;;;;;;;;;;;
2021/01/08 00:42:24;;;;;;;9.53;7.13;;;;;;;;;;5116706;28;20110;-58
2021/01/08 00:44:58;;;;;;;10.57;8.57;;;;;;;;;;5121943;28;20114;-58
2021/01/08 00:47:54;;;;;;;9.33;6.73;;;;;;;;;;5122852;28;20334;-58
2021/01/08 00:50:36;;;;;;;10.17;8.17;;;;;;;;;;5122673;28;20105;-56
2021/01/08 00:53:32;;;;;;;9.13;7.00;;;;;;;;;;5102634;28;20481;-58
2021/01/08 00:56:22;;;;;;;13.57;8.37;;;;;;;;;;5122412;28;20129;-55
2021/01/08 01:02:16;;;;;;;10.23;7.90;;;;;;;;;;5121732;28;20103;-57
2021/01/08 01:04:53;;;;;;;8.00;7.20;;;;;;;;;;5103219;28;20038;-55
2021/01/08 01:07:32;;;;;;;;;;;;;;;;;;;;;
2021/01/08 01:10:22;;;;;;;9.73;7.10;;;;;;;;;;5122583;28;20450;-58
2021/01/08 01:13:29;;;;;;;;;;;;;;;;;;;;;
2021/01/08 01:16:04;;;;;;;10.27;7.07;;;;;;;;;;5084665;28;20472;-58
2021/01/08 01:21:42;;;;;;;;;;;;;;;;;;;;;
2021/01/08 01:24:40;;;;;;;10.83;7.27;;;;;;;;;;5122137;28;20114;-57
2021/01/08 01:27:11;;;;;;;7.60;6.13;;;;;;;;;;5122071;28;20023;-58
2021/01/08 01:29:48;;;;;;;8.63;6.13;;;;;;;;;;5103935;28;20080;-56
2021/01/08 01:32:49;;;;;;;7.20;6.07;;;;;;;;;;5122004;28;20024;-57
2021/01/08 01:38:29;;;;;;;9.63;7.20;;;;;;;;;;5117442;28;20043;-56
2021/01/08 01:41:14;;;;;;;12.97;6.80;;;;;;;;;;5104187;28;20454;-58
2021/01/08 01:43:44;;;;;;;6.73;5.30;;;;;;;;;;5122066;28;20031;-58
2021/01/08 01:46:26;;;;;;;10.13;6.13;;;;;;;;;;5103874;28;20649;-56
2021/01/08 01:49:31;;;;;;;7.73;5.73;;;;;;;;;;5120954;28;20061;-57
2021/01/08 01:57:49;;;;;;;5.88;5.05;;;;;;;;;;5121215;28;20093;-58
2021/01/08 02:03:38;;;;;;;6.73;5.10;;;;;;;;;;5121346;28;20154;-58
2021/01/08 02:06:26;;;;;;;8.93;5.57;;;;;;;;;;5097159;28;20043;-58
2021/01/08 02:12:11;;;;;;;7.90;5.83;;;;;;;;;;5018217;28;20494;-58
2021/01/08 02:15:10;;;;;;;7.07;4.70;;;;;;;;;;5017183;28;20054;-57
2021/01/08 02:18:08;;;;;;;6.17;5.17;;;;;;;;;;5119550;28;20054;-58
2021/01/08 02:23:44;;;;;;;7.05;5.75;;;;;;;;;;5121439;28;20034;-58
2021/01/08 02:29:16;;;;;;;9.03;5.80;;;;;;;;;;5091244;28;20055;-58
2021/01/08 02:32:00;;;;;;;5.90;4.77;;;;;;;;;;5086262;28;20053;-58
2021/01/08 02:35:01;;;;;;;8.10;6.63;;;;;;;;;;5102387;28;20039;-57
2021/01/08 02:37:52;;;;;;;12.20;7.67;;;;;;;;;;5120193;28;20031;-55
2021/01/08 02:40:46;;;;;;;10.85;7.05;;;;;;;;;;5120764;28;20032;-58
2021/01/08 02:43:18;;;;;;;8.10;7.17;;;;;;;;;;5119939;28;20098;-58
2021/01/08 02:46:16;;;;;;;10.93;7.70;;;;;;;;;;5097875;28;20055;-57
2021/01/08 02:52:18;;;;;;;7.47;6.40;;;;;;;;;;5119067;28;20047;-57
2021/01/08 02:55:07;;;;;;;;;;;;;;;;;;;;;
2021/01/08 03:00:53;;;;;;;10.50;7.87;;;;;;;;;;5119757;28;20036;-58
2021/01/08 03:03:42;;;;;;;11.50;8.13;;;;;;;;;;5056806;28;20037;-58
2021/01/08 03:06:36;;;;;;;14.47;9.53;;;;;;;;;;5057277;28;20467;-59
2021/01/08 03:09:30;;;;;;;;;;;;;;;;;;;;;
2021/01/08 03:12:09;;;;;;;12.03;8.83;;;;;;;;;;5054811;28;20131;-56
2021/01/08 03:15:14;;;;;;;16.30;10.47;;;;;;;;;;5056864;28;20497;-58
2021/01/08 03:17:47;;;;;;;11.17;9.67;;;;;;;;;;5010026;28;20063;-58
2021/01/08 03:20:14;;;;;;;11.30;9.17;;;;;;;;;;5037774;28;20123;-58
2021/01/08 03:22:46;;;;;;;13.33;9.53;;;;;;;;;;5024199;28;20037;-59
2021/01/08 03:34:51;;;;;;;10.90;7.77;;;;;;;;;;4978616;28;20074;-58
2021/01/08 03:37:45;;;;;;;12.60;8.20;;;;;;;;;;4996717;28;20141;-57
2021/01/08 03:40:28;;;;;;;;;;;;;;;;;;;;;
2021/01/08 03:43:06;;;;;;;9.43;7.43;;;;;;;;;;5095122;28;20545;-58
2021/01/08 03:46:06;;;;;;;11.37;8.63;;;;;;;;;;5099976;28;20030;-58
2021/01/08 03:48:52;;;;;;;13.30;7.50;;;;;;;;;;5081840;28;20032;-58
2021/01/08 03:51:42;;;;;;;8.90;7.87;;;;;;;;;;5099636;28;20103;-58
2021/01/08 03:57:21;;;;;;;13.63;7.37;;;;;;;;;;5098956;28;20054;-59
2021/01/08 04:00:06;;;;;;;8.00;6.90;;;;;;;;;;5099419;28;20411;-58
2021/01/08 04:03:00;;;;;;;11.87;8.33;;;;;;;;;;5100033;28;20035;-58
2021/01/08 04:08:57;;;;;;;10.37;7.60;;;;;;;;;;5074778;28;20032;-55
2021/01/08 04:14:56;;;;;;;10.17;6.83;;;;;;;;;;5037006;28;20038;-57
2021/01/08 04:17:35;;;;;;;15.37;10.50;;;;;;;;;;5033339;28;20055;-58
2021/01/08 04:23:28;;;;;;;11.80;7.63;;;;;;;;;;5114456;28;20032;-58
2021/01/08 04:25:57;;;;;;;10.73;7.70;;;;;;;;;;5119987;28;20016;-58
2021/01/08 04:32:00;;;;;;;9.63;7.53;;;;;;;;;;5021890;28;20034;-59
2021/01/08 04:34:45;;;;;;;;;;;;;;;;;;;;;
2021/01/08 04:37:12;;;;;;;10.10;7.73;;;;;;;;;;5122951;28;20114;-58
2021/01/08 04:39:47;;;;;;;11.33;7.97;;;;;;;;;;5123097;28;20024;-59
2021/01/08 04:42:28;;;;;;;10.20;7.67;;;;;;;;;;5104412;28;20109;-59
2021/01/08 04:51:12;;;;;;;;;;;;;;;;;;;;;
2021/01/08 04:53:42;;;;;;;11.32;9.02;;;;;;;;;;5120494;28;20430;-59
2021/01/08 04:56:19;;;;;;;11.00;7.63;;;;;;;;;;5122497;28;20023;-58
2021/01/08 05:04:56;;;;;;;10.33;6.97;;;;;;;;;;5122806;28;20035;-59
2021/01/08 05:07:46;;;;;;;7.70;6.53;;;;;;;;;;5104019;28;20028;-58
2021/01/08 05:16:27;;;;;;;7.07;6.00;;;;;;;;;;5118274;28;20043;-58
2021/01/08 05:19:24;;;;;;;9.07;5.63;;;;;;;;;;5122421;28;20457;-58
2021/01/08 05:28:02;;;;;;;8.77;6.93;;;;;;;;;;5020140;28;20064;-58
2021/01/08 05:31:12;;;;;;;9.67;6.40;;;;;;;;;;5029402;28;20095;-58
2021/01/08 05:33:44;;;;;;;7.75;6.95;;;;;;;;;;5116791;28;20389;-57
2021/01/08 05:36:22;;;;;;;8.47;5.83;;;;;;;;;;5117205;28;20411;-59
2021/01/08 05:39:27;;;;;;;10.97;5.90;;;;;;;;;;5117710;28;20016;-58
2021/01/08 05:42:03;;;;;;;9.37;6.53;;;;;;;;;;5014094;28;20022;-58
2021/01/08 05:44:48;;;;;;;8.57;7.20;;;;;;;;;;5004960;28;20515;-58
2021/01/08 05:47:39;;;;;;;8.03;5.80;;;;;;;;;;4998770;28;20037;-58
2021/01/08 05:53:14;;;;;;;11.77;5.47;;;;;;;;;;4954931;28;20037;-58
2021/01/08 05:59:04;;;;;;;8.10;5.47;;;;;;;;;;4946885;28;20106;-57
2021/01/08 06:05:02;;;;;;;7.60;5.40;;;;;;;;;;5003885;28;20113;-58
2021/01/08 06:07:57;;;;;;;10.47;6.33;;;;;;;;;;5013205;28;20026;-59
2021/01/08 06:11:04;;;;;;;;;;;;;;;;;;;;;
2021/01/08 06:13:26;;;;;;;9.37;6.80;;;;;;;;;;5095296;28;20039;-59
2021/01/08 06:15:56;;;;;;;9.50;5.73;;;;;;;;;;5115990;28;20023;-58
2021/01/08 06:18:41;;;;;;;9.45;6.55;;;;;;;;;;5096150;28;20476;-58
2021/01/08 06:21:19;;;;;;;9.67;6.43;;;;;;;;;;5091677;28;20050;-56
2021/01/08 06:24:36;;;;;;;;;;;;;;;;;;;;;
2021/01/08 06:30:24;;;;;;;7.27;5.40;;;;;;;;;;5060551;28;20055;-58
2021/01/08 06:33:40;;;;;;;6.67;5.27;;;;;;;;;;5114145;28;20496;-57
2021/01/08 06:39:35;;;;;;;8.70;7.13;;;;;;;;;;5032464;28;20036;-58
2021/01/08 06:42:13;;;;;;;8.03;5.60;;;;;;;;;;5032587;28;20511;-59
2021/01/08 06:44:55;;;;;;;7.30;5.83;;;;;;;;;;5000873;28;20475;-59
2021/01/08 06:47:27;;;;;;;6.23;5.40;;;;;;;;;;5032216;28;20029;-57
2021/01/08 07:00:06;;;;;;;12.35;5.05;;;;;;;;;;5114989;28;20058;-57
2021/01/08 07:02:41;;;;;;;7.00;5.30;;;;;;;;;;5062584;28;20031;-57
2021/01/08 07:05:33;;;;;;;7.60;6.20;;;;;;;;;;5114700;28;20024;-59
2021/01/08 07:08:01;;;;;;;6.20;4.90;;;;;;;;;;5099276;28;20053;-59
2021/01/08 07:10:52;;;;;;;8.67;6.27;;;;;;;;;;5115156;28;20031;-59
2021/01/08 07:13:57;;;;;;;8.75;5.65;;;;;;;;;;5114965;28;20027;-59
2021/01/08 07:19:26;;;;;;;11.53;7.00;;;;;;;;;;5099875;28;20047;-58
2021/01/08 07:22:11;;;;;;;;;;;;;;;;;;;;;
2021/01/08 07:24:45;;;;;;;8.60;6.07;;;;;;;;;;5116009;28;20436;-58
2021/01/08 07:30:54;;;;;;;8.23;5.03;;;;;;;;;;5091767;28;20124;-58
2021/01/08 07:33:33;;;;;;;14.67;5.90;;;;;;;;;;5114376;28;20024;-58
2021/01/08 07:36:25;;;;;;;5.17;4.47;;;;;;;;;;5096059;28;20020;-58
2021/01/08 07:38:51;;;;;;;11.73;7.30;;;;;;;;;;5114658;28;20073;-59
2021/01/08 07:41:30;;;;;;;13.10;6.90;;;;;;;;;;5095486;28;20122;-57
2021/01/08 07:47:32;;;;;;;8.13;5.63;;;;;;;;;;5114715;28;20039;-58
2021/01/08 07:50:25;;;;;;;8.37;5.83;;;;;;;;;;5114936;28;20035;-59
2021/01/08 07:53:07;;;;;;;6.73;6.03;;;;;;;;;;5113691;28;20055;-60
2021/01/08 07:55:45;;;;;;;8.63;4.93;;;;;;;;;;5114531;28;20051;-59
2021/01/08 07:58:24;;;;;;;9.90;6.77;;;;;;;;;;5086939;28;20149;-59
2021/01/08 08:04:13;;;;;;;5.72;5.07;;;;;;;;;;5113618;28;20046;-57
2021/01/08 08:07:05;;;;;;;8.03;5.47;;;;;;;;;;5115426;28;20478;-60
2021/01/08 08:09:56;;;;;;;7.63;6.00;;;;;;;;;;5098948;28;20032;-59
2021/01/08 08:12:49;;;;;;;6.33;5.03;;;;;;;;;;5098534;28;20030;-59
2021/01/08 08:15:27;;;;;;;9.13;5.87;;;;;;;;;;5015298;28;20089;-59
2021/01/08 08:18:21;;;;;;;5.00;3.93;;;;;;;;;;5118369;28;20034;-59
2021/01/08 08:23:57;;;;;;;8.37;5.70;;;;;;;;;;5117748;28;20038;-59
2021/01/08 08:26:42;;;;;;;6.53;4.73;;;;;;;;;;5099626;28;20031;-59
2021/01/08 08:29:28;;;;;;;;;;;;;;;;;;;;;
2021/01/08 08:32:07;;;;;;;8.63;5.43;;;;;;;;;;5096948;28;20039;-59
2021/01/08 08:35:03;;;;;;;6.13;5.30;;;;;;;;;;5117916;28;20035;-58
2021/01/08 08:40:47;;;;;;;11.97;6.07;;;;;;;;;;5116946;28;20034;-59
2021/01/08 08:43:44;;;;;;;7.00;5.13;;;;;;;;;;5117103;28;20139;-58
2021/01/08 08:49:28;;;;;;;;;;;;;;;;;;;;;
2021/01/08 08:52:05;;;;;;;8.47;5.70;;;;;;;;;;5116897;28;20472;-58
2021/01/08 08:54:50;;;;;;;6.80;4.33;;;;;;;;;;5098619;28;20028;-59
2021/01/08 09:00:30;;;;;;;6.23;5.37;;;;;;;;;;5082410;28;20104;-59
2021/01/08 09:03:27;;;;;;;7.67;4.77;;;;;;;;;;5116764;28;20039;-59
2021/01/08 09:06:31;;;;;;;;;;;;;;;;;;;;;
2021/01/08 09:09:02;;;;;;;8.33;4.47;;;;;;;;;;5115238;28;20043;-59
2021/01/08 09:11:43;;;;;;;8.73;4.40;;;;;;;;;;5054047;28;20545;-59
2021/01/08 09:14:28;;;;;;;7.72;5.25;;;;;;;;;;5054190;28;20482;-59
2021/01/08 09:17:25;;;;;;;5.53;4.93;;;;;;;;;;5054306;28;20053;-57
2021/01/08 09:26:44;;;;;;;;;;;;;;;;;;;;;
2021/01/08 09:29:29;;;;;;;9.13;4.50;;;;;;;;;;5050298;28;20037;-57
2021/01/08 09:31:59;;;;;;;8.13;5.17;;;;;;;;;;5053724;28;20497;-57
2021/01/08 09:34:50;;;;;;;6.75;4.47;;;;;;;;;;5053620;28;20075;-57
2021/01/08 09:37:39;;;;;;;5.63;4.32;;;;;;;;;;5053404;28;20029;-58
2021/01/08 09:40:36;;;;;;;5.13;3.80;;;;;;;;;;5054379;28;20071;-58
2021/01/08 09:43:27;;;;;;;7.87;4.67;;;;;;;;;;5014207;28;20042;-57
2021/01/08 09:46:14;;;;;;;7.37;4.60;;;;;;;;;;5053346;28;20068;-54
2021/01/08 09:48:48;;;;;;;4.57;4.00;;;;;;;;;;5053179;28;20037;-58
2021/01/08 09:51:32;;;;;;;5.90;3.87;;;;;;;;;;5036640;28;20167;-57
2021/01/08 09:57:36;;;;;;;;;;;;;;;;;;;;;
2021/01/08 10:00:36;;;;;;;;;;;;;;;;;;;;;
2021/01/08 10:03:30;;;;;;;5.23;3.70;;;;;;;;;;5060488;28;20055;-58
2021/01/08 10:06:34;;;;;;;4.90;3.10;;;;;;;;;;5095234;28;20478;-54
2021/01/08 10:09:14;;;;;;;3.83;3.03;;;;;;;;;;5053502;28;20394;-56
2021/01/08 10:12:05;;;;;;;4.07;3.22;;;;;;;;;;5095991;28;20024;-58
2021/01/08 10:15:12;;;;;;;3.20;2.57;;;;;;;;;;5093380;28;20063;-57
2021/01/08 10:18:09;;;;;;;6.07;2.47;;;;;;;;;;5095467;28;20016;-58
2021/01/08 10:20:59;;;;;;;3.97;2.80;;;;;;;;;;5107400;28;20048;-58
2021/01/08 10:23:28;;;;;;;7.22;3.13;;;;;;;;;;5071862;28;20418;-58
2021/01/08 10:26:14;;;;;;;3.97;2.57;;;;;;;;;;5056015;28;20040;-57
2021/01/08 10:31:56;;;;;;;5.40;3.17;;;;;;;;;;5072353;28;20031;-56
2021/01/08 10:37:31;;;;;;;3.50;2.63;;;;;;;;;;5067056;28;20497;-56
2021/01/08 10:40:18;;;;;;;3.57;2.40;;;;;;;;;;5072636;28;20103;-58
2021/01/08 10:43:41;;;;;;;5.07;2.93;;;;;;;;;;5072751;28;20093;-58
2021/01/08 10:46:29;;;;;;;3.13;2.30;;;;;;;;;;4993008;28;20073;-57
2021/01/08 10:48:58;;;;;;;6.40;3.33;;;;;;;;;;4992804;28;20037;-58
2021/01/08 10:51:57;;;;;;;3.87;2.67;;;;;;;;;;5051251;28;20028;-58
2021/01/08 10:54:29;;;;;;;3.60;2.23;;;;;;;;;;5092339;28;20493;-57
2021/01/08 10:57:20;;;;;;;;;;;;;;;;;;;;;
2021/01/08 10:59:59;;;;;;;3.83;2.40;;;;;;;;;;5110426;28;20031;-57
2021/01/08 11:03:10;;;;;;;5.13;2.93;;;;;;;;;;5115527;28;20031;-58
2021/01/08 11:11:10;;;;;;;5.67;3.07;;;;;;;;;;5101140;28;20028;-57
2021/01/08 11:16:50;;;;;;;2.50;1.87;;;;;;;;;;5041619;28;19909;-58
2021/01/08 11:19:21;;;;;;;5.80;4.20;;;;;;;;;;5096521;28;20020;-58
2021/01/08 11:25:03;;;;;;;6.53;3.20;;;;;;;;;;5094125;28;20477;-58
2021/01/08 11:27:38;;;;;;;5.13;3.40;;;;;;;;;;5092051;28;20035;-58
2021/01/08 11:30:23;;;;;;;4.80;3.03;;;;;;;;;;5094667;28;20024;-58
2021/01/08 11:35:56;;;;;;;;;;;;;;;;;;5094620;28;20156;-59
2021/01/08 11:38:33;;;;;;;4.20;3.40;;;;;;;;;;5093596;28;20281;-58
2021/01/08 11:41:17;;;;;;;4.27;3.20;;;;;;;;;;5094987;28;20028;-57
2021/01/08 11:43:46;;;;;;;7.80;4.10;;;;;;;;;;5095543;28;20039;-58
2021/01/08 11:49:51;;;;;;;19.40;6.35;;;;;;;;;;5035546;28;20056;-58
2021/01/08 11:52:27;;;;;;;6.30;3.70;;;;;;;;;;5088859;28;20043;-58
2021/01/08 11:54:58;;;;;;;5.43;3.47;;;;;;;;;;5098396;28;20046;-59
2021/01/08 11:57:45;;;;;;;5.20;3.10;;;;;;;;;;5098405;28;20024;-58
2021/01/08 12:03:19;;;;;;;3.73;2.43;;;;;;;;;;5098025;28;20441;-58
2021/01/08 12:05:59;;;;;;;7.93;4.20;;;;;;;;;;5098446;28;20046;-58
2021/01/08 12:11:45;;;;;;;3.83;2.13;;;;;;;;;;5040645;28;20035;-58
2021/01/08 12:14:25;;;;;;;4.13;2.87;;;;;;;;;;5098075;28;20035;-58
2021/01/08 12:17:09;;;;;;;3.63;2.97;;;;;;;;;;5098191;28;20039;-58
2021/01/08 12:19:56;;;;;;;5.90;3.40;;;;;;;;;;5098948;28;20036;-58
2021/01/08 12:22:40;;;;;;;5.83;3.07;;;;;;;;;;5117622;28;20477;-58
2021/01/08 12:25:29;;;;;;;5.60;3.40;;;;;;;;;;5098630;28;20039;-58
2021/01/08 12:27:58;;;;;;;5.90;4.20;;;;;;;;;;5081408;28;20035;-58
2021/01/08 12:33:53;;;;;;;4.50;3.45;;;;;;;;;;5117292;28;20027;-58
2021/01/08 12:36:28;;;;;;;4.67;3.20;;;;;;;;;;5099625;28;20564;-57
2021/01/08 12:39:05;;;;;;;4.93;2.93;;;;;;;;;;5117010;28;20388;-57
2021/01/08 12:44:35;;;;;;;5.07;2.60;;;;;;;;;;5117190;28;20501;-57
2021/01/08 12:47:19;;;;;;;5.73;4.27;;;;;;;;;;5098422;28;20081;-57
2021/01/08 12:50:20;;;;;;;8.67;4.20;;;;;;;;;;5117467;28;20026;-58
2021/01/08 12:52:49;;;;;;;;;;;;;;;;;;5114151;28;20108;-58
2021/01/08 12:55:24;;;;;;;5.17;2.87;;;;;;;;;;5096978;28;20341;-57
2021/01/08 12:58:21;;;;;;;4.77;3.67;;;;;;;;;;5117675;28;20038;-55
2021/01/08 13:01:02;;;;;;;4.90;3.73;;;;;;;;;;5117345;28;20050;-56
2021/01/08 13:03:50;;;;;;;5.47;3.40;;;;;;;;;;5116849;28;20365;-55
2021/01/08 13:09:53;;;;;;;6.00;2.97;;;;;;;;;;5111829;28;20035;-57
2021/01/08 13:15:25;;;;;;;6.53;4.07;;;;;;;;;;5074195;28;20119;-58
2021/01/08 13:17:59;;;;;;;5.53;3.70;;;;;;;;;;5074349;28;20104;-56
2021/01/08 13:20:26;;;;;;;6.30;4.30;;;;;;;;;;5073575;28;20049;-57
2021/01/08 13:26:01;;;;;;;4.43;3.57;;;;;;;;;;5073561;28;20036;-57
2021/01/08 13:28:39;;;;;;;6.28;4.45;;;;;;;;;;5071581;28;20037;-57
2021/01/08 13:31:47;;;;;;;5.73;4.40;;;;;;;;;;5073966;28;20082;-57
2021/01/08 13:34:21;;;;;;;6.27;3.97;;;;;;;;;;5073678;28;20033;-57
2021/01/08 13:36:50;;;;;;;5.93;3.63;;;;;;;;;;5073441;28;20079;-54
2021/01/08 13:39:38;;;;;;;5.37;4.20;;;;;;;;;;5074163;28;20070;-52
2021/01/08 13:42:27;;;;;;;6.23;3.83;;;;;;;;;;5073584;28;20025;-54
2021/01/08 13:45:12;;;;;;;6.33;4.20;;;;;;;;;;5088113;28;20040;-53
2021/01/08 13:47:44;;;;;;;4.43;3.70;;;;;;;;;;5094433;28;20036;-54
2021/01/08 13:50:28;;;;;;;10.20;4.33;;;;;;;;;;5095337;28;20085;-54
2021/01/08 13:53:38;;;;;;;7.80;4.37;;;;;;;;;;5096958;28;20020;-55
2021/01/08 13:56:06;;;;;;;5.03;3.63;;;;;;;;;;4997079;28;20042;-54
2021/01/08 13:58:59;;;;;;;6.43;4.53;;;;;;;;;;5012365;28;20033;-52
2021/01/08 14:04:42;;;;;;;5.23;4.37;;;;;;;;;;5094975;28;20121;-55
2021/01/08 14:10:31;;;;;;;5.60;4.63;;;;;;;;;;5091974;28;20028;-50
2021/01/08 14:13:16;;;;;;;4.33;3.93;;;;;;;;;;5096244;28;20473;-55
2021/01/08 14:16:07;;;;;;;5.77;3.83;;;;;;;;;;5093319;28;20054;-54
2021/01/08 14:18:41;;;;;;;5.30;4.03;;;;;;;;;;5094988;28;20024;-56
2021/01/08 14:21:39;;;;;;;6.20;3.80;;;;;;;;;;5098770;28;20069;-55
2021/01/08 14:24:16;;;;;;;8.87;6.13;;;;;;;;;;5116655;28;20469;-52
2021/01/08 14:26:47;;;;;;;6.50;4.43;;;;;;;;;;5116433;28;20027;-53
2021/01/08 14:32:18;;;;;;;4.97;3.87;;;;;;;;;;5116285;28;20035;-54
2021/01/08 14:34:59;;;;;;;8.87;5.23;;;;;;;;;;5116136;28;20035;-54
2021/01/08 14:37:43;;;;;;;9.75;6.22;;;;;;;;;;5115410;28;20028;-54
2021/01/08 14:40:23;;;;;;;7.40;5.23;;;;;;;;;;5081653;28;20038;-56
2021/01/08 14:42:57;;;;;;;14.25;8.52;;;;;;;;;;5095751;28;20035;-52
2021/01/08 14:45:46;;;;;;;14.57;8.57;;;;;;;;;;5112281;28;20035;-55
2021/01/08 14:48:23;;;;;;;7.80;6.17;;;;;;;;;;5115138;28;20032;-55
2021/01/08 14:51:09;;;;;;;6.80;4.43;;;;;;;;;;5115064;28;20032;-54
2021/01/08 14:57:09;;;;;;;7.70;4.77;;;;;;;;;;5062842;28;20046;-53
2021/01/08 14:59:52;;;;;;;8.40;4.67;;;;;;;;;;5114738;28;20015;-54
2021/01/08 15:02:24;;;;;;;6.90;4.20;;;;;;;;;;5114778;28;20034;-52
2021/01/08 15:08:38;;;;;;;9.70;4.77;;;;;;;;;;5012329;28;20124;-53
2021/01/08 15:11:16;;;;;;;5.70;4.33;;;;;;;;;;5012618;28;20041;-54
2021/01/08 15:13:48;;;;;;;5.20;4.00;;;;;;;;;;5011045;28;20046;-54
2021/01/08 15:16:22;;;;;;;6.27;4.77;;;;;;;;;;5029894;28;20036;-52
2021/01/08 15:19:09;;;;;;;;;;;;;;;;;;;;;
2021/01/08 15:21:49;;;;;;;6.97;4.63;;;;;;;;;;5109963;28;20054;-52
2021/01/08 15:24:42;;;;;;;11.23;4.47;;;;;;;;;;5114392;28;20408;-56
2021/01/08 15:27:34;;;;;;;5.10;4.00;;;;;;;;;;5114304;28;20088;-55
2021/01/08 15:30:15;;;;;;;5.60;4.63;;;;;;;;;;5068407;28;20585;-52
2021/01/08 15:35:35;;;;;;;7.40;4.77;;;;;;;;;;5114428;28;20478;-57
2021/01/08 15:41:13;;;;;;;5.60;4.00;;;;;;;;;;5100598;28;20030;-57
2021/01/08 15:44:03;;;;;;;7.40;3.63;;;;;;;;;;5109033;28;20482;-59
2021/01/08 15:46:35;;;;;;;7.70;4.50;;;;;;;;;;5097139;28;20405;-58
2021/01/08 15:49:27;;;;;;;7.10;4.80;;;;;;;;;;5114468;28;20099;-58
2021/01/08 15:52:45;;;;;;;9.83;4.57;;;;;;;;;;5113324;28;20019;-58
2021/01/08 15:55:19;;;;;;;6.83;3.50;;;;;;;;;;5012479;28;20037;-58
2021/01/08 16:04:20;;;;;;;5.93;4.40;;;;;;;;;;5114227;28;20085;-57
2021/01/08 16:07:22;;;;;;;6.57;4.80;;;;;;;;;;5114639;28;20015;-55
2021/01/08 16:10:11;;;;;;;6.93;4.07;;;;;;;;;;5011566;28;20157;-56
2021/01/08 16:12:42;;;;;;;6.00;4.63;;;;;;;;;;5012665;28;20034;-57
2021/01/08 16:15:21;;;;;;;;;;;;;;;;;;;;;
2021/01/08 16:18:41;;;;;;;9.37;6.40;;;;;;;;;;5058224;28;20368;-58
2021/01/08 16:21:33;;;;;;;5.60;3.50;;;;;;;;;;4994137;28;20447;-59
2021/01/08 16:24:16;;;;;;;4.37;3.33;;;;;;;;;;5112746;28;20048;-58
2021/01/08 16:26:50;;;;;;;6.20;3.90;;;;;;;;;;5071209;28;20070;-55
2021/01/08 16:35:21;;;;;;;5.83;4.00;;;;;;;;;;5026678;28;20038;-55
2021/01/08 16:37:51;;;;;;;8.57;4.40;;;;;;;;;;5105952;28;20358;-56
2021/01/08 16:40:28;;;;;;;7.63;6.82;;;;;;;;;;5117688;28;20461;-57
2021/01/08 16:42:59;;;;;;;6.90;4.67;;;;;;;;;;5099065;28;20027;-56
2021/01/08 16:45:48;;;;;;;5.37;4.10;;;;;;;;;;5118166;28;20034;-56
2021/01/08 16:48:33;;;;;;;6.70;4.23;;;;;;;;;;5114907;28;20489;-58
2021/01/08 16:51:37;;;;;;;;;;;;;;;;;;;;;
2021/01/08 16:54:11;;;;;;;7.47;5.17;;;;;;;;;;5089730;28;20432;-58
2021/01/08 16:56:53;;;;;;;6.17;3.77;;;;;;;;;;5078333;28;20501;-58
2021/01/08 16:59:22;;;;;;;6.47;4.00;;;;;;;;;;5094146;28;20061;-58
2021/01/08 17:04:49;;;;;;;7.47;5.37;;;;;;;;;;5086165;28;20036;-57
2021/01/08 17:07:34;;;;;;;5.43;3.43;;;;;;;;;;5094210;28;20035;-58
2021/01/08 17:10:41;;;;;;;8.23;5.07;;;;;;;;;;5072706;28;20102;-58
2021/01/08 17:13:35;;;;;;;6.37;3.67;;;;;;;;;;5091322;28;20115;-58
2021/01/08 17:16:13;;;;;;;5.63;3.80;;;;;;;;;;5077121;28;20481;-58
2021/01/08 17:18:58;;;;;;;6.17;4.70;;;;;;;;;;5110455;28;20481;-57
2021/01/08 17:21:53;;;;;;;8.43;4.63;;;;;;;;;;5115426;28;20085;-57
2021/01/08 17:24:34;;;;;;;5.23;2.73;;;;;;;;;;5097767;28;20060;-58
2021/01/08 17:27:12;;;;;;;7.37;4.83;;;;;;;;;;5097524;28;20106;-58
2021/01/08 17:30:01;;;;;;;7.37;5.03;;;;;;;;;;5096382;28;20100;-57
2021/01/08 17:32:52;;;;;;;;;;;;;;;;;;;;;
2021/01/08 17:35:29;;;;;;;7.10;4.53;;;;;;;;;;5111893;28;20500;-57
2021/01/08 17:40:56;;;;;;;8.17;4.97;;;;;;;;;;5116764;28;20089;-58
2021/01/08 17:43:45;;;;;;;7.20;4.77;;;;;;;;;;5116268;28;20023;-56
2021/01/08 17:46:30;;;;;;;6.47;5.47;;;;;;;;;;5098314;28;20360;-54
2021/01/08 17:49:08;;;;;;;6.67;4.97;;;;;;;;;;5097834;28;20031;-56
2021/01/08 17:51:49;;;;;;;10.40;6.13;;;;;;;;;;5115774;28;20024;-57
2021/01/08 17:54:15;;;;;;;6.75;5.10;;;;;;;;;;5116603;28;20442;-57
2021/01/08 17:56:50;;;;;;;6.80;4.90;;;;;;;;;;5115854;28;20028;-57
2021/01/08 17:59:48;;;;;;;8.70;4.87;;;;;;;;;;5098203;28;20525;-57
2021/01/08 18:02:42;;;;;;;10.10;7.30;;;;;;;;;;5080766;28;20052;-58
2021/01/08 18:05:14;;;;;;;9.83;5.03;;;;;;;;;;5116620;28;20517;-57
2021/01/08 18:08:03;;;;;;;5.13;4.37;;;;;;;;;;5115830;28;20031;-57
2021/01/08 18:10:50;;;;;;;7.03;5.00;;;;;;;;;;5103160;28;20388;-57
2021/01/08 18:13:53;;;;;;;;;;;;;;;;;;;;;
2021/01/08 18:16:27;;;;;;;8.67;5.07;;;;;;;;;;5115731;28;20118;-56
2021/01/08 18:19:05;;;;;;;6.93;4.73;;;;;;;;;;5116181;28;20030;-58
2021/01/08 18:21:40;;;;;;;6.00;4.67;;;;;;;;;;5116140;28;20024;-58
2021/01/08 18:24:38;;;;;;;6.33;5.17;;;;;;;;;;5087950;28;20048;-57
2021/01/08 18:30:23;;;;;;;8.07;4.80;;;;;;;;;;5100881;28;20088;-55
2021/01/08 18:39:08;;;;;;;8.97;5.63;;;;;;;;;;5115742;28;20396;-56
2021/01/08 18:41:55;;;;;;;8.50;4.87;;;;;;;;;;5093127;28;20036;-56
2021/01/08 18:44:24;;;;;;;6.33;4.53;;;;;;;;;;5094546;28;20040;-57
2021/01/08 18:47:22;;;;;;;6.73;4.43;;;;;;;;;;5116148;28;20047;-57
2021/01/08 18:50:08;;;;;;;6.73;4.53;;;;;;;;;;5115346;28;20023;-56
2021/01/08 18:52:49;;;;;;;6.87;4.93;;;;;;;;;;5115331;28;20027;-57
2021/01/08 18:55:50;;;;;;;7.70;5.27;;;;;;;;;;5116089;28;20035;-58
2021/01/08 18:58:38;;;;;;;11.07;6.03;;;;;;;;;;5092627;28;20504;-58
2021/01/08 19:01:28;;;;;;;8.07;5.40;;;;;;;;;;5100131;28;20035;-55
2021/01/08 19:04:20;;;;;;;;;;;;;;;;;;;;;
2021/01/08 19:10:10;;;;;;;7.00;4.80;;;;;;;;;;5101200;28;20035;-57
2021/01/08 19:13:03;;;;;;;8.93;5.20;;;;;;;;;;5114952;28;20031;-57
2021/01/08 19:18:23;;;;;;;8.17;5.83;;;;;;;;;;5062196;28;20088;-56
2021/01/08 19:20:54;;;;;;;8.50;5.77;;;;;;;;;;5114627;28;20110;-56
2021/01/08 19:23:30;;;;;;;7.43;5.23;;;;;;;;;;5114404;28;20136;-58
2021/01/08 19:26:03;;;;;;;6.83;4.77;;;;;;;;;;5114120;28;20050;-57
2021/01/08 19:28:45;;;;;;;6.50;5.23;;;;;;;;;;5113436;28;20028;-56
2021/01/08 19:34:23;;;;;;;13.17;6.13;;;;;;;;;;5095829;28;20108;-57
2021/01/08 19:37:07;;;;;;;6.17;4.23;;;;;;;;;;5114935;28;20399;-57
2021/01/08 19:39:45;;;;;;;6.53;4.23;;;;;;;;;;5114317;28;20027;-57
2021/01/08 19:42:40;;;;;;;6.30;4.77;;;;;;;;;;5114092;28;20024;-56
2021/01/08 19:45:27;;;;;;;5.23;4.17;;;;;;;;;;5114661;28;20081;-55
2021/01/08 19:48:23;;;;;;;5.17;4.40;;;;;;;;;;5095272;28;20039;-57
2021/01/08 19:54:39;;;;;;;8.73;5.13;;;;;;;;;;4953116;28;20058;-56
2021/01/08 19:57:16;;;;;;;7.20;5.73;;;;;;;;;;5011563;28;20058;-55
2021/01/08 20:03:10;;;;;;;6.53;3.67;;;;;;;;;;5013556;28;20033;-57
2021/01/08 20:05:46;;;;;;;5.80;3.87;;;;;;;;;;5015856;28;20439;-56
2021/01/08 20:08:36;;;;;;;9.20;5.23;;;;;;;;;;5081694;28;20534;-57
2021/01/08 20:11:18;;;;;;;5.87;4.53;;;;;;;;;;5104813;28;20059;-53
2021/01/08 20:14:48;;;;;;;;;;;;;;;;;;;;;
2021/01/08 20:17:17;;;;;;;7.83;5.63;;;;;;;;;;5004162;28;20037;-56
2021/01/08 20:20:00;;;;;;;;;;;;;;;;;;;;;
2021/01/08 20:22:48;;;;;;;5.60;4.40;;;;;;;;;;5118427;28;20020;-55
2021/01/08 20:25:36;;;;;;;9.37;6.47;;;;;;;;;;5117638;28;20574;-56
2021/01/08 20:28:39;;;;;;;9.20;6.50;;;;;;;;;;5118183;28;20036;-57
2021/01/08 20:31:37;;;;;;;8.40;5.90;;;;;;;;;;5118324;28;20038;-58
2021/01/08 20:34:20;;;;;;;;;;;;;;;;;;;;;
2021/01/08 20:36:55;;;;;;;6.33;4.87;;;;;;;;;;5113235;28;20032;-56
2021/01/08 20:39:35;;;;;;;9.03;6.23;;;;;;;;;;5118462;28;20449;-55
2021/01/08 20:42:37;;;;;;;8.47;5.20;;;;;;;;;;5117541;28;20023;-56
2021/01/08 20:48:50;;;;;;;10.20;7.80;;;;;;;;;;5117625;28;20473;-56
2021/01/08 20:51:25;;;;;;;10.80;8.17;;;;;;;;;;5099134;28;20522;-54
2021/01/08 20:54:20;;;;;;;8.30;5.77;;;;;;;;;;5117409;28;20091;-54
2021/01/08 20:57:12;;;;;;;7.40;5.90;;;;;;;;;;5080744;28;20442;-57
2021/01/08 21:02:39;;;;;;;9.07;5.83;;;;;;;;;;5014934;28;20026;-58
2021/01/08 21:05:25;;;;;;;;;;;;;;;;;;;;;
2021/01/08 21:08:11;;;;;;;10.60;7.17;;;;;;;;;;5052357;28;20033;-57
2021/01/08 21:11:14;;;;;;;11.23;7.57;;;;;;;;;;5047742;28;20037;-57
2021/01/08 21:14:18;;;;;;;10.43;6.87;;;;;;;;;;5037065;28;20430;-56
2021/01/08 21:16:53;;;;;;;10.73;7.53;;;;;;;;;;5014559;28;20150;-57